Aeroporto :
LOGIN :

Iscrizione | Disclaimer

   EN    FR    IT 

 










Sommario :    VFR   VFR Marginale   IFR   IFR Intensivo   IFR Molto Intensivo
Visibilità : 
Base nubi : 
>= 8 km
>= 3000ft
5 / 8 km
1000 / 3000 ft
1500m / 5 km
500 / 1000 ft
800 / 1500m
200 / 500 ft
< 800m
< 200 ft
Simboli :   Temporali  Nebbia  Neve Forte  Precipitazioni Forti  Vento > 20 kt
SIGMETs :   Varie  Temporali  Ghiacco  Turbolenza  Onda orograficha  Ceneri Vulcaniche







- Altitudine del aeroporto : 299 ft
- Codice IATA : EDM
- Carte del aeroporto


LFRI - La Roche Sur Yon - Les Ajoncs

ULTIMO METAR :
  • 201830Z AUTO 28009KT 250V310 9999 BKN025 BKN041 21/16 Q1018 NOSIG

METARs OBSOLETI :
  • 201800Z AUTO 28009KT 220V300 9999 SCT028 BKN042 22/16 Q1017 NOSIG
  • 201730Z AUTO 25008KT 220V280 9999 FEW021 SCT027 BKN033 22/16 Q1017 NOSIG
  • 201700Z AUTO 24007KT 200V280 9999 SCT021 OVC033 22/18 Q1017 NOSIG
  • 201630Z AUTO 25010KT 210V280 9999 FEW022 BKN031 BKN037 22/18 Q1017 NOSIG
  • 201600Z AUTO 23009KT 210V270 9999 FEW027 SCT032 BKN041 22/18 Q1017 NOSIG

TAF TAF LFRI
Valido dal 20 a 18 ore il 21 a 18 ore UTC


201700Z 2018/2118 26009KT 9999 SCT030
BECMG 2100/2103 VRB03KT
TEMPO 2103/2106 3000 BR BKN003
PROB30
TEMPO 2103/2106 0800 BCFG
BECMG 2116/2118 29010KT
Nessun NOTAM noto per questo aeroporto.



MetMap, La meteo Aeronautica in un colpo d'occhio ! - Copyright ORBIFLY Dicembre 2007 - Disclaimer

ORBIFLY MET'MAP TEAM :

Programmazione e sviluppo : Alexandra Zaïnal
Concezione e sviluppo : Baudouin d'Aumeries
Co-Programmazione e sviluppo : Marc-Olivier Méhu
Supporto tecnico e logistico : Manuel Goepfert
Aiuto per la traduzione : Arnaldo La Scala

Contatto : metmap@orbifly.com




FONTI E CREDITI :

   NOAA